createdAt,value
2018-12-08T00:01:01.544Z,216.53
2018-12-08T00:03:31.098Z,238.10
2018-12-08T00:06:00.865Z,270.50
2018-12-08T00:08:30.797Z,299.63
2018-12-08T00:11:01.227Z,309.73
2018-12-08T00:13:30.875Z,295.10
2018-12-08T00:16:00.776Z,297.17
2018-12-08T00:18:30.674Z,289.90
2018-12-08T00:21:00.945Z,302.87
2018-12-08T00:23:30.839Z,295.33
2018-12-08T00:26:01.209Z,308.33
2018-12-08T00:28:30.833Z,268.43
2018-12-08T00:31:11.376Z,264.73
2018-12-08T00:33:41.203Z,272.20
2018-12-08T00:36:11.065Z,270.87
2018-12-08T00:38:40.815Z,249.40
2018-12-08T00:41:10.476Z,239.73
2018-12-08T00:43:40.331Z,235.47
2018-12-08T00:46:09.999Z,218.83
2018-12-08T00:48:39.800Z,240.33
2018-12-08T00:51:09.486Z,232.73
2018-12-08T00:53:39.643Z,212.80
2018-12-08T00:56:09.343Z,209.00
2018-12-08T00:58:39.209Z,224.47
2018-12-08T01:01:09.054Z,246.77
2018-12-08T01:03:38.911Z,259.27
2018-12-08T01:06:08.625Z,239.83
2018-12-08T01:08:39.368Z,250.90
2018-12-08T01:11:09.160Z,216.43
2018-12-08T01:13:38.898Z,225.30
2018-12-08T01:16:08.650Z,252.27
2018-12-08T01:18:38.564Z,252.30
2018-12-08T01:21:08.321Z,267.13
2018-12-08T01:23:38.338Z,251.63
2018-12-08T01:26:07.939Z,243.87
2018-12-08T01:28:37.611Z,249.30
2018-12-08T01:31:08.253Z,216.93
2018-12-08T01:33:38.009Z,222.23
2018-12-08T01:36:08.619Z,231.07
2018-12-08T01:38:39.427Z,230.20
2018-12-08T01:41:09.125Z,220.73
2018-12-08T01:43:38.902Z,228.37
2018-12-08T01:46:08.863Z,221.90
2018-12-08T01:48:38.685Z,227.30
2018-12-08T01:51:08.819Z,231.47
2018-12-08T01:53:38.743Z,206.73
2018-12-08T01:56:08.921Z,213.00
2018-12-08T01:58:39.146Z,220.57
2018-12-08T02:01:09.106Z,215.50
2018-12-08T02:03:38.986Z,218.23
2018-12-08T02:06:08.814Z,231.23
2018-12-08T02:08:38.522Z,228.67
2018-12-08T02:11:08.547Z,203.83
2018-12-08T02:13:38.450Z,189.23
2018-12-08T02:16:08.084Z,186.60
2018-12-08T02:18:38.162Z,208.23
2018-12-08T02:21:07.871Z,205.17
2018-12-08T02:23:37.801Z,192.20
2018-12-08T02:26:07.721Z,159.83
2018-12-08T02:28:37.721Z,178.33
2018-12-08T02:31:07.545Z,174.23
2018-12-08T02:33:37.418Z,183.83
2018-12-08T02:36:07.492Z,170.87
2018-12-08T02:38:37.198Z,169.53
2018-12-08T02:41:06.908Z,171.87
2018-12-08T02:43:37.207Z,170.53
2018-12-08T02:46:07.029Z,167.97
2018-12-08T02:48:37.984Z,163.03
2018-12-08T02:51:07.923Z,177.03
2018-12-08T02:53:38.159Z,173.07
2018-12-08T02:56:07.852Z,167.60
2018-12-08T02:58:38.021Z,158.20
2018-12-08T03:01:07.954Z,160.67
2018-12-08T03:03:38.050Z,160.53
2018-12-08T03:06:08.582Z,168.43
2018-12-08T03:08:38.316Z,154.73
2018-12-08T03:11:08.580Z,164.77
2018-12-08T03:13:38.426Z,156.80
2018-12-08T03:16:08.537Z,153.40
2018-12-08T03:18:38.219Z,147.47
2018-12-08T03:21:08.253Z,142.47
2018-12-08T03:23:38.001Z,149.87
2018-12-08T03:26:07.588Z,150.00
2018-12-08T03:28:37.285Z,168.70
2018-12-08T03:31:07.324Z,158.10
2018-12-08T03:33:37.137Z,186.77
2018-12-08T03:36:06.899Z,179.90
2018-12-08T03:38:36.778Z,163.83
2018-12-08T03:41:06.533Z,168.00
2018-12-08T03:43:36.459Z,168.73
2018-12-08T03:46:06.369Z,168.93
2018-12-08T03:48:35.977Z,149.77
2018-12-08T03:51:05.966Z,153.73
2018-12-08T03:53:35.709Z,138.60
2018-12-08T03:56:05.494Z,153.17
2018-12-08T03:58:35.123Z,161.40
2018-12-08T04:01:04.830Z,152.23
2018-12-08T04:03:34.747Z,157.33
2018-12-08T04:06:04.577Z,170.17
2018-12-08T04:08:34.550Z,159.03
2018-12-08T04:11:04.454Z,161.20
2018-12-08T04:13:34.554Z,166.47
2018-12-08T04:16:04.412Z,157.33
2018-12-08T04:18:34.268Z,144.97
2018-12-08T04:21:04.022Z,108.63
2018-12-08T04:23:33.881Z,114.20
2018-12-08T04:26:03.645Z,112.67
2018-12-08T04:28:33.297Z,133.57
2018-12-08T04:31:02.966Z,136.20
2018-12-08T04:33:32.586Z,134.57
2018-12-08T04:36:02.337Z,121.97
2018-12-08T04:38:31.956Z,132.80
2018-12-08T04:41:01.963Z,115.53
2018-12-08T04:43:31.854Z,112.13
2018-12-08T04:46:02.239Z,112.33
2018-12-08T04:48:32.414Z,112.33
2018-12-08T04:51:03.003Z,115.67
2018-12-08T04:53:32.618Z,115.47
2018-12-08T04:56:02.485Z,114.90
2018-12-08T04:58:32.444Z,112.63
2018-12-08T05:01:02.023Z,106.53
2018-12-08T05:03:31.859Z,118.80
2018-12-08T05:06:02.062Z,114.60
2018-12-08T05:08:31.936Z,113.13
2018-12-08T05:11:01.865Z,124.83
2018-12-08T05:13:31.590Z,116.43
2018-12-08T05:16:01.142Z,108.90
2018-12-08T05:18:31.190Z,110.67
2018-12-08T05:21:01.032Z,124.60
2018-12-08T05:23:31.611Z,113.50
2018-12-08T05:26:01.635Z,124.33
2018-12-08T05:28:31.333Z,119.37
2018-12-08T05:31:01.089Z,114.87
2018-12-08T05:33:31.099Z,109.97
2018-12-08T05:36:00.799Z,109.63
2018-12-08T05:38:30.447Z,102.83
2018-12-08T05:41:00.587Z,125.10
2018-12-08T05:43:30.298Z,104.80
2018-12-08T05:46:00.216Z,110.40
2018-12-08T05:48:30.075Z,105.37
2018-12-08T05:50:59.739Z,100.97
2018-12-08T05:53:29.631Z,107.77
2018-12-08T05:55:59.542Z,108.97
2018-12-08T05:58:29.218Z,106.73
2018-12-08T06:00:59.119Z,92.87
2018-12-08T06:03:29.311Z,86.27
2018-12-08T06:05:58.819Z,79.50
2018-12-08T06:08:28.999Z,80.30
2018-12-08T06:10:58.633Z,79.03
2018-12-08T06:13:28.553Z,73.47
2018-12-08T06:15:58.454Z,70.97
2018-12-08T06:18:28.487Z,76.57
2018-12-08T06:20:58.915Z,79.17
2018-12-08T06:23:29.040Z,84.00
2018-12-08T06:26:00.327Z,87.73
2018-12-08T06:28:32.972Z,92.83
2018-12-08T06:31:02.731Z,140.13
2018-12-08T06:33:32.477Z,96.73
2018-12-08T06:36:02.052Z,92.57
2018-12-08T06:38:31.702Z,90.33
2018-12-08T06:41:01.476Z,91.53
2018-12-08T06:43:31.373Z,88.63
2018-12-08T06:46:01.104Z,87.13
2018-12-08T06:48:30.783Z,116.73
2018-12-08T06:51:00.554Z,92.10
2018-12-08T06:53:30.106Z,94.73
2018-12-08T06:56:00.267Z,102.03
2018-12-08T06:58:30.070Z,84.50
2018-12-08T07:01:00.279Z,93.47
2018-12-08T07:03:30.037Z,100.37
2018-12-08T07:05:59.889Z,99.47
2018-12-08T07:08:30.710Z,89.47
2018-12-08T07:11:00.578Z,93.60
2018-12-08T07:13:30.224Z,98.40
2018-12-08T07:16:00.255Z,110.40
2018-12-08T07:18:30.014Z,110.33
2018-12-08T07:21:00.068Z,101.93
2018-12-08T07:23:31.257Z,102.40
2018-12-08T07:26:01.232Z,111.77
2018-12-08T07:28:30.795Z,98.37
2018-12-08T07:31:00.411Z,102.03
2018-12-08T07:33:31.169Z,108.47
2018-12-08T07:36:01.085Z,100.27
2018-12-08T07:38:31.478Z,102.07
2018-12-08T07:41:01.182Z,105.67
2018-12-08T07:43:31.298Z,112.83
2018-12-08T07:46:01.062Z,113.27
2018-12-08T07:48:30.718Z,115.20
2018-12-08T07:51:00.337Z,109.13
2018-12-08T07:53:30.430Z,100.20
2018-12-08T07:55:59.986Z,109.33
2018-12-08T07:58:30.499Z,110.50
2018-12-08T08:01:00.125Z,109.00
2018-12-08T08:03:29.825Z,120.20
2018-12-08T08:05:59.408Z,124.40
2018-12-08T08:08:29.399Z,125.43
2018-12-08T08:10:59.266Z,122.87
2018-12-08T08:13:28.950Z,124.37
2018-12-08T08:15:58.823Z,139.67
2018-12-08T08:18:28.546Z,127.03
2018-12-08T08:20:58.137Z,124.83
2018-12-08T08:23:28.182Z,126.57
2018-12-08T08:25:57.746Z,136.13
2018-12-08T08:28:27.514Z,126.80
2018-12-08T08:30:57.252Z,136.77
2018-12-08T08:33:27.083Z,129.77
2018-12-08T08:35:56.815Z,129.27
2018-12-08T08:38:26.474Z,142.90
2018-12-08T08:40:56.433Z,142.37
2018-12-08T08:43:25.978Z,155.73
2018-12-08T08:45:55.829Z,150.17
2018-12-08T08:48:25.679Z,153.60
2018-12-08T08:50:55.666Z,148.17
2018-12-08T08:53:27.498Z,151.60
2018-12-08T08:55:57.554Z,169.73
2018-12-08T08:58:27.050Z,167.47
2018-12-08T09:00:56.873Z,158.10
2018-12-08T09:03:27.174Z,141.50
2018-12-08T09:05:57.006Z,142.43
2018-12-08T09:08:26.609Z,142.97
2018-12-08T09:10:56.276Z,138.37
2018-12-08T09:13:25.886Z,146.10
2018-12-08T09:15:55.633Z,155.73
2018-12-08T09:18:25.228Z,145.10
2018-12-08T09:20:55.065Z,155.33
2018-12-08T09:23:24.765Z,144.80
2018-12-08T09:25:54.418Z,144.33
2018-12-08T09:28:24.242Z,153.63
2018-12-08T09:30:54.409Z,149.43
2018-12-08T09:36:15.764Z,169.87
2018-12-08T09:38:45.417Z,158.97
2018-12-08T09:41:15.278Z,146.90
2018-12-08T09:43:44.923Z,161.87
2018-12-08T09:46:14.637Z,145.17
2018-12-08T09:48:44.179Z,138.57
2018-12-08T09:51:14.039Z,141.30
2018-12-08T09:53:44.054Z,142.27
2018-12-08T09:56:14.689Z,142.77
2018-12-08T09:58:44.327Z,144.37
2018-12-08T10:01:14.250Z,128.27
2018-12-08T10:03:44.052Z,153.77
2018-12-08T10:06:13.983Z,146.50
2018-12-08T10:08:43.887Z,142.83
2018-12-08T10:11:13.615Z,136.43
2018-12-08T10:13:43.633Z,138.03
2018-12-08T10:16:13.490Z,148.17
2018-12-08T10:18:43.458Z,134.90
2018-12-08T10:21:13.283Z,136.27
2018-12-08T10:23:42.859Z,134.83
2018-12-08T10:26:12.916Z,147.17
2018-12-08T10:28:42.814Z,134.00
2018-12-08T10:31:12.529Z,131.80
2018-12-08T10:33:42.106Z,134.07
2018-12-08T10:36:11.902Z,139.60
2018-12-08T10:38:41.806Z,133.83
2018-12-08T10:41:11.657Z,137.90
2018-12-08T10:43:41.711Z,137.20
2018-12-08T10:46:11.229Z,147.20
2018-12-08T10:48:40.926Z,140.23
2018-12-08T10:51:10.509Z,130.70
2018-12-08T10:53:40.466Z,128.87
2018-12-08T10:56:10.174Z,134.27
2018-12-08T10:58:39.886Z,124.17
2018-12-08T11:01:15.010Z,132.33
2018-12-08T11:03:50.458Z,124.83
2018-12-08T11:06:20.418Z,117.83
2018-12-08T11:08:50.286Z,112.20
2018-12-08T11:11:20.169Z,100.03
2018-12-08T11:13:49.906Z,99.77
2018-12-08T11:16:19.918Z,112.33
2018-12-08T11:18:49.938Z,115.07
2018-12-08T11:21:19.816Z,119.23
2018-12-08T11:23:49.576Z,107.83
2018-12-08T11:26:19.321Z,105.50
2018-12-08T11:28:49.294Z,106.87
2018-12-08T11:31:18.830Z,98.37
2018-12-08T11:33:48.498Z,109.50
2018-12-08T11:36:18.908Z,86.23
2018-12-08T11:38:48.839Z,86.47
2018-12-08T11:41:18.863Z,91.77
2018-12-08T11:43:48.574Z,104.60
2018-12-08T11:46:18.275Z,97.67
2018-12-08T11:48:48.011Z,98.10
2018-12-08T11:51:18.059Z,103.90
2018-12-08T11:53:47.699Z,95.63
2018-12-08T11:56:17.452Z,91.67
2018-12-08T11:58:47.124Z,99.77
2018-12-08T12:01:16.963Z,89.87
2018-12-08T12:03:46.614Z,87.37
2018-12-08T12:06:16.556Z,94.97
2018-12-08T12:08:46.515Z,87.27
2018-12-08T12:11:16.412Z,85.40
2018-12-08T12:13:46.133Z,86.37
2018-12-08T12:16:16.605Z,93.77
2018-12-08T12:18:46.262Z,90.00
2018-12-08T12:21:15.823Z,97.57
2018-12-08T12:23:45.334Z,94.87
2018-12-08T12:26:15.032Z,100.73
2018-12-08T12:28:44.619Z,92.53
2018-12-08T12:31:14.598Z,95.60
2018-12-08T12:33:44.286Z,105.63
2018-12-08T12:36:13.823Z,103.33
2018-12-08T12:38:43.836Z,94.83
2018-12-08T12:41:13.644Z,95.13
2018-12-08T12:43:43.259Z,97.00
2018-12-08T12:46:13.054Z,106.50
2018-12-08T12:48:42.868Z,99.73
2018-12-08T12:51:12.683Z,111.60
2018-12-08T12:53:42.547Z,104.50
2018-12-08T12:56:12.496Z,105.43
2018-12-08T12:58:42.232Z,109.57
2018-12-08T13:01:12.129Z,105.63
2018-12-08T13:03:42.031Z,103.20
2018-12-08T13:06:11.749Z,107.17
2018-12-08T13:08:41.559Z,106.70
2018-12-08T13:11:11.638Z,98.53
2018-12-08T13:13:41.225Z,105.70
2018-12-08T13:16:11.091Z,120.23
2018-12-08T13:18:40.959Z,127.17
2018-12-08T13:21:11.334Z,105.27
2018-12-08T13:23:41.868Z,121.23
2018-12-08T13:26:11.598Z,111.57
2018-12-08T13:28:41.678Z,121.80
2018-12-08T13:31:11.573Z,111.83
2018-12-08T13:33:41.497Z,113.63
2018-12-08T13:36:12.169Z,113.40
2018-12-08T13:38:41.920Z,111.03
2018-12-08T13:41:11.468Z,114.37
2018-12-08T13:43:42.892Z,113.77
2018-12-08T13:46:12.587Z,114.77
2018-12-08T13:48:42.514Z,120.40
2018-12-08T13:51:12.491Z,120.90
2018-12-08T13:53:42.157Z,116.37
2018-12-08T13:56:12.216Z,116.67
2018-12-08T13:58:41.897Z,120.10
2018-12-08T14:01:12.005Z,113.93
2018-12-08T14:03:41.789Z,117.90
2018-12-08T14:06:11.522Z,112.67
2018-12-08T14:08:41.547Z,104.97
2018-12-08T14:11:11.252Z,110.23
2018-12-08T14:13:41.717Z,116.27
2018-12-08T14:16:11.420Z,125.63
2018-12-08T14:18:41.246Z,119.43
2018-12-08T14:21:11.094Z,155.83
2018-12-08T14:23:40.835Z,186.77
2018-12-08T14:26:10.542Z,190.27
2018-12-08T14:28:40.575Z,182.70
2018-12-08T14:31:10.242Z,196.30
2018-12-08T14:33:40.168Z,208.37
2018-12-08T14:36:09.958Z,207.53
2018-12-08T14:38:39.708Z,211.23
2018-12-08T14:41:09.360Z,197.03
2018-12-08T14:43:39.187Z,196.37
2018-12-08T14:46:09.136Z,189.37
2018-12-08T14:48:38.763Z,180.57
2018-12-08T14:51:08.719Z,173.70
2018-12-08T14:53:39.354Z,173.03
2018-12-08T14:56:08.959Z,163.67
2018-12-08T14:58:38.629Z,162.57
2018-12-08T15:01:08.383Z,163.73
2018-12-08T15:03:38.545Z,161.60
2018-12-08T15:06:08.203Z,160.00
2018-12-08T15:08:37.770Z,166.50
2018-12-08T15:11:07.671Z,176.73
2018-12-08T15:13:37.382Z,186.57
2018-12-08T15:16:07.089Z,180.30
2018-12-08T15:18:37.075Z,178.63
2018-12-08T15:21:06.869Z,156.13
2018-12-08T15:23:36.615Z,186.43
2018-12-08T15:26:06.245Z,165.60
2018-12-08T15:28:36.204Z,171.80
2018-12-08T15:31:06.010Z,189.37
2018-12-08T15:33:36.333Z,174.07
2018-12-08T15:36:06.101Z,207.77
2018-12-08T15:38:35.823Z,177.43
2018-12-08T15:41:06.025Z,163.13
2018-12-08T15:43:35.687Z,174.70
2018-12-08T15:46:05.648Z,181.33
2018-12-08T15:48:35.243Z,179.73
2018-12-08T15:51:04.964Z,165.30
2018-12-08T15:53:34.724Z,153.83
2018-12-08T15:56:04.640Z,165.13
2018-12-08T15:58:34.383Z,165.13
2018-12-08T16:01:04.366Z,152.53
2018-12-08T16:03:34.194Z,169.20
2018-12-08T16:06:03.889Z,167.60
2018-12-08T16:08:33.822Z,166.50
2018-12-08T16:11:03.535Z,168.67
2018-12-08T16:13:33.444Z,185.47
2018-12-08T16:16:03.585Z,180.93
2018-12-08T16:18:33.250Z,180.10
2018-12-08T16:21:04.712Z,176.00
2018-12-08T16:23:34.266Z,180.27
2018-12-08T16:26:03.960Z,174.43
2018-12-08T16:28:33.864Z,167.20
2018-12-08T16:31:03.602Z,181.90
2018-12-08T16:33:33.404Z,170.67
2018-12-08T16:36:03.494Z,168.70
2018-12-08T16:38:34.353Z,183.73
2018-12-08T16:41:04.460Z,197.97
2018-12-08T16:43:34.209Z,191.67
2018-12-08T16:46:04.025Z,186.97
2018-12-08T16:48:33.987Z,194.90
2018-12-08T16:51:03.875Z,186.67
2018-12-08T16:53:33.938Z,176.97
2018-12-08T16:56:03.539Z,151.07
2018-12-08T16:58:33.389Z,142.07
2018-12-08T17:01:03.487Z,143.30
2018-12-08T17:03:33.152Z,130.80
2018-12-08T17:06:03.014Z,142.03
2018-12-08T17:08:32.967Z,131.57
2018-12-08T17:11:02.577Z,131.67
2018-12-08T17:13:32.794Z,116.57
2018-12-08T17:16:02.743Z,131.80
2018-12-08T17:18:32.518Z,141.23
2018-12-08T17:21:02.238Z,150.47
2018-12-08T17:23:32.445Z,152.43
2018-12-08T17:26:02.371Z,159.70
2018-12-08T17:28:32.213Z,157.43
2018-12-08T17:31:02.422Z,144.20
2018-12-08T17:33:32.145Z,155.13
2018-12-08T17:36:01.920Z,187.30
2018-12-08T17:38:31.754Z,162.90
2018-12-08T17:41:01.636Z,175.07
2018-12-08T17:43:32.525Z,152.40
2018-12-08T17:46:02.186Z,155.87
2018-12-08T17:48:31.738Z,172.23
2018-12-08T17:51:01.619Z,156.07
2018-12-08T17:53:31.547Z,164.87
2018-12-08T17:56:01.193Z,155.23
2018-12-08T17:58:30.885Z,167.40
2018-12-08T18:01:00.864Z,163.13
2018-12-08T18:03:31.036Z,170.93
2018-12-08T18:06:00.893Z,176.70
2018-12-08T18:08:30.641Z,166.03
2018-12-08T18:11:00.307Z,173.23
2018-12-08T18:13:30.104Z,175.33
2018-12-08T18:16:00.020Z,180.97
2018-12-08T18:18:30.057Z,194.33
2018-12-08T18:21:00.113Z,214.33
2018-12-08T18:23:29.846Z,199.43
2018-12-08T18:26:00.037Z,200.13
2018-12-08T18:28:29.694Z,173.97
2018-12-08T18:30:59.346Z,188.90
2018-12-08T18:33:29.290Z,175.97
2018-12-08T18:35:59.079Z,163.10
2018-12-08T18:38:28.908Z,181.00
2018-12-08T18:40:58.887Z,184.43
2018-12-08T18:43:28.569Z,193.03
2018-12-08T18:45:58.451Z,208.17
2018-12-08T18:48:28.291Z,207.60
2018-12-08T18:50:57.854Z,203.70
2018-12-08T18:53:27.541Z,205.90
2018-12-08T18:55:57.642Z,209.53
2018-12-08T18:58:27.478Z,222.03
2018-12-08T19:00:57.442Z,214.77
2018-12-08T19:03:27.207Z,214.90
2018-12-08T19:05:56.902Z,242.63
2018-12-08T19:08:26.917Z,235.67
2018-12-08T19:10:56.794Z,260.50
2018-12-08T19:13:26.814Z,280.43
2018-12-08T19:15:57.535Z,276.80
2018-12-08T19:18:27.205Z,287.70
2018-12-08T19:20:56.932Z,275.00
2018-12-08T19:23:27.286Z,270.30
2018-12-08T19:25:57.226Z,271.83
2018-12-08T19:28:27.112Z,273.50
2018-12-08T19:30:58.340Z,287.40
2018-12-08T19:33:28.108Z,285.00
2018-12-08T19:35:57.792Z,291.07
2018-12-08T19:38:28.160Z,325.27
2018-12-08T19:40:58.062Z,335.80
2018-12-08T19:43:28.158Z,351.67
2018-12-08T19:45:57.951Z,351.47
2018-12-08T19:48:28.046Z,379.80
2018-12-08T19:50:57.765Z,394.67
2018-12-08T19:53:27.938Z,416.50
2018-12-08T19:55:58.205Z,450.73
2018-12-08T19:58:27.981Z,444.73
2018-12-08T20:00:57.673Z,454.13
2018-12-08T20:03:27.274Z,459.80
2018-12-08T20:05:57.335Z,462.23
2018-12-08T20:08:27.077Z,481.17
2018-12-08T20:10:57.361Z,493.23
2018-12-08T20:13:26.998Z,480.60
2018-12-08T20:15:56.875Z,376.23
2018-12-08T20:18:26.622Z,407.23
2018-12-08T20:20:56.514Z,457.23
2018-12-08T20:23:26.223Z,478.53
2018-12-08T20:25:56.310Z,484.00
2018-12-08T20:28:26.372Z,496.17
2018-12-08T20:30:56.116Z,469.73
2018-12-08T20:33:25.978Z,492.83
2018-12-08T20:35:55.828Z,481.60
2018-12-08T20:38:25.569Z,488.13
2018-12-08T20:40:55.534Z,458.70
2018-12-08T20:43:25.399Z,446.93
2018-12-08T20:45:57.110Z,433.50
2018-12-08T20:48:26.810Z,419.03
2018-12-08T20:50:56.777Z,416.27
2018-12-08T20:53:26.637Z,424.03
2018-12-08T20:55:56.232Z,405.63
2018-12-08T20:58:26.289Z,409.87
2018-12-08T21:00:56.094Z,376.70
2018-12-08T21:03:25.712Z,349.57
2018-12-08T21:05:55.618Z,387.80
2018-12-08T21:08:25.657Z,380.97
2018-12-08T21:10:55.338Z,379.33
2018-12-08T21:13:25.557Z,374.80
2018-12-08T21:15:55.166Z,391.37
2018-12-08T21:18:24.814Z,369.17
2018-12-08T21:20:54.647Z,371.27
2018-12-08T21:23:25.468Z,362.97
2018-12-08T21:25:55.378Z,374.20
2018-12-08T21:28:26.763Z,362.93
2018-12-08T21:30:56.538Z,340.53
2018-12-08T21:33:26.491Z,267.87
2018-12-08T21:35:56.486Z,264.33
2018-12-08T21:38:26.289Z,242.40
2018-12-08T21:40:56.028Z,244.20
2018-12-08T21:43:25.615Z,276.67
2018-12-08T21:45:55.639Z,257.23
2018-12-08T21:48:25.478Z,263.33
2018-12-08T21:50:55.600Z,258.37
2018-12-08T21:53:25.263Z,270.77
2018-12-08T21:55:56.018Z,249.37
2018-12-08T21:58:25.838Z,271.67
2018-12-08T22:00:55.753Z,244.47
2018-12-08T22:03:25.381Z,232.70
2018-12-08T22:05:55.192Z,242.70
2018-12-08T22:08:25.942Z,227.83
2018-12-08T22:10:56.026Z,268.27
2018-12-08T22:13:25.824Z,259.53
2018-12-08T22:15:55.574Z,256.17
2018-12-08T22:18:25.332Z,250.80
2018-12-08T22:20:55.096Z,232.13
2018-12-08T22:23:25.131Z,196.03
2018-12-08T22:25:54.930Z,213.50
2018-12-08T22:28:24.808Z,211.00
2018-12-08T22:30:54.632Z,185.17
2018-12-08T22:33:24.874Z,185.67
2018-12-08T22:35:54.740Z,198.17
2018-12-08T22:38:24.429Z,205.57
2018-12-08T22:40:54.470Z,192.77
2018-12-08T22:43:24.242Z,196.10
2018-12-08T22:46:57.270Z,203.23
2018-12-08T22:49:26.908Z,197.90
2018-12-08T22:51:56.877Z,212.90
2018-12-08T22:54:26.691Z,232.27
2018-12-08T22:56:56.231Z,218.30
2018-12-08T22:59:26.269Z,215.67
2018-12-08T23:01:56.120Z,208.37
2018-12-08T23:04:25.666Z,216.37
2018-12-08T23:07:05.927Z,225.80
2018-12-08T23:09:35.730Z,213.30
2018-12-08T23:12:05.377Z,199.03
2018-12-08T23:14:35.147Z,214.77
2018-12-08T23:17:05.986Z,204.20
2018-12-08T23:19:35.697Z,208.23
2018-12-08T23:22:05.792Z,200.60
2018-12-08T23:24:35.662Z,213.97
2018-12-08T23:27:05.268Z,224.97
2018-12-08T23:29:35.133Z,217.30
2018-12-08T23:32:05.006Z,220.90
2018-12-08T23:34:34.800Z,209.03
2018-12-08T23:37:04.901Z,208.33
2018-12-08T23:39:38.865Z,204.63
2018-12-08T23:42:06.843Z,214.37
2018-12-08T23:44:36.447Z,183.57
2018-12-08T23:47:06.484Z,193.97
2018-12-08T23:49:36.390Z,204.87
2018-12-08T23:52:06.190Z,213.53
2018-12-08T23:54:36.104Z,226.67
2018-12-08T23:57:06.150Z,222.03
2018-12-08T23:59:36.113Z,218.20
